Time;durP1;ratioP1;P1;durP2;ratioP2;P2;SDS_P1;SDS_P2;PMS_P1;PMS_P2;Temp;Humidity;BMP_temperature;BMP_pressure;BME280_temperature;BME280_humidity;BME280_pressure;Samples;Min_cycle;Max_cycle;Signal;HPM_P1;HPM_P2
2023/05/20 00:01:37;;;;;;;15.05;7.22;;;12.90;99.90;;;;;;4976463;28;20057;-76
2023/05/20 00:04:03;;;;;;;11.38;7.70;;;12.90;99.90;;;;;;4976069;28;20034;-75
2023/05/20 00:06:28;;;;;;;11.95;7.05;;;12.80;99.90;;;;;;4975171;28;20058;-76
2023/05/20 00:08:54;;;;;;;11.68;7.47;;;12.80;99.90;;;;;;4975535;28;20477;-76
2023/05/20 00:11:20;;;;;;;11.05;6.85;;;12.80;99.90;;;;;;4975878;28;20465;-75
2023/05/20 00:13:46;;;;;;;18.33;7.60;;;12.80;99.90;;;;;;4975773;28;20058;-76
2023/05/20 00:16:11;;;;;;;12.85;6.72;;;12.80;99.90;;;;;;4975495;28;20046;-75
2023/05/20 00:18:37;;;;;;;12.35;7.18;;;12.80;99.90;;;;;;4974695;28;20023;-76
2023/05/20 00:21:03;;;;;;;15.60;7.53;;;12.80;99.90;;;;;;4975410;28;20037;-76
2023/05/20 00:23:28;;;;;;;13.70;7.15;;;12.80;99.90;;;;;;4973903;28;20023;-76
2023/05/20 00:25:54;;;;;;;14.88;6.85;;;12.80;99.90;;;;;;4973952;28;20500;-75
2023/05/20 00:28:21;;;;;;;12.73;6.88;;;12.80;99.90;;;;;;4975293;28;20031;-75
2023/05/20 00:30:47;;;;;;;16.63;7.07;;;12.80;99.90;;;;;;4975411;28;20437;-76
2023/05/20 00:33:13;;;;;;;10.13;6.60;;;12.80;99.90;;;;;;4973573;28;20121;-75
2023/05/20 00:35:38;;;;;;;13.77;6.93;;;12.80;99.90;;;;;;4975102;28;20113;-76
2023/05/20 00:38:04;;;;;;;15.40;7.63;;;12.80;99.90;;;;;;4973604;28;20096;-76
2023/05/20 00:40:30;;;;;;;12.00;7.05;;;12.80;99.90;;;;;;4989847;28;20046;-76
2023/05/20 00:42:55;;;;;;;15.20;7.40;;;12.80;99.90;;;;;;4973355;28;20027;-75
2023/05/20 00:45:21;;;;;;;10.98;7.65;;;12.70;99.90;;;;;;4974843;28;20536;-75
2023/05/20 00:47:47;;;;;;;11.93;7.13;;;12.80;99.90;;;;;;4974669;28;20031;-75
2023/05/20 00:50:13;;;;;;;10.77;7.15;;;12.70;99.90;;;;;;4973801;28;20030;-75
2023/05/20 00:52:40;;;;;;;14.70;7.57;;;12.70;99.90;;;;;;4974631;28;20026;-75
2023/05/20 00:55:06;;;;;;;16.50;7.40;;;12.70;99.90;;;;;;4974233;28;20093;-75
2023/05/20 00:57:31;;;;;;;13.10;7.70;;;12.70;99.90;;;;;;4974479;28;20552;-76
2023/05/20 00:59:57;;;;;;;15.77;9.00;;;12.70;99.90;;;;;;4974242;28;20031;-76
2023/05/20 01:02:23;;;;;;;14.00;8.30;;;12.70;99.90;;;;;;4974823;28;20027;-75
2023/05/20 01:04:49;;;;;;;11.18;7.43;;;12.70;99.90;;;;;;4974625;28;20027;-75
2023/05/20 01:07:16;;;;;;;14.13;8.00;;;12.70;99.90;;;;;;4989218;28;20424;-75
2023/05/20 01:09:42;;;;;;;14.50;7.13;;;12.70;99.90;;;;;;5009204;28;20496;-75
2023/05/20 01:12:38;;;;;;;10.32;7.03;;;12.70;99.90;;;;;;4993898;28;20109;-75
2023/05/20 01:15:09;;;;;;;13.18;7.10;;;12.70;99.90;;;;;;5009014;28;20038;-75
2023/05/20 01:17:38;;;;;;;13.98;6.63;;;12.70;99.90;;;;;;4993860;28;20161;-76
2023/05/20 01:20:09;;;;;;;11.23;6.85;;;12.70;99.90;;;;;;4993500;28;20030;-74
2023/05/20 01:22:37;;;;;;;9.93;6.40;;;12.70;99.90;;;;;;4993450;28;20041;-75
2023/05/20 01:25:04;;;;;;;8.45;6.18;;;12.70;99.90;;;;;;5008126;28;20033;-75
2023/05/20 01:27:30;;;;;;;9.77;6.00;;;12.70;99.90;;;;;;5008330;28;20362;-74
2023/05/20 01:29:56;;;;;;;10.25;6.07;;;12.70;99.90;;;;;;4993251;28;20027;-75
2023/05/20 01:32:30;;;;;;;10.23;6.63;;;12.70;99.90;;;;;;4993115;28;20029;-75
2023/05/20 01:34:57;;;;;;;10.80;6.45;;;12.70;99.90;;;;;;4993145;28;20022;-75
2023/05/20 01:37:24;;;;;;;14.73;7.40;;;12.70;99.90;;;;;;4993154;28;20038;-75
2023/05/20 01:39:51;;;;;;;11.32;6.63;;;12.60;99.90;;;;;;5007999;28;20429;-75
2023/05/20 01:42:17;;;;;;;11.05;7.13;;;12.60;99.90;;;;;;4993019;28;20129;-76
2023/05/20 01:44:43;;;;;;;11.32;7.50;;;12.60;99.90;;;;;;5007873;28;20003;-75
2023/05/20 01:47:09;;;;;;;15.45;7.22;;;12.60;99.90;;;;;;4992996;28;20030;-75
2023/05/20 01:49:35;;;;;;;11.73;6.70;;;12.60;99.90;;;;;;4992801;28;20073;-74
2023/05/20 01:52:01;;;;;;;12.75;7.00;;;12.50;99.90;;;;;;4992011;28;20040;-75
2023/05/20 01:54:26;;;;;;;10.27;6.70;;;12.60;99.90;;;;;;4992906;28;20026;-74
2023/05/20 01:56:52;;;;;;;9.85;6.40;;;12.50;99.90;;;;;;4992917;28;20058;-75
2023/05/20 01:59:18;;;;;;;10.43;6.70;;;12.50;99.90;;;;;;4991586;28;20114;-76
2023/05/20 02:01:43;;;;;;;11.98;7.20;;;12.50;99.90;;;;;;5007613;28;20027;-75
2023/05/20 02:04:09;;;;;;;13.02;6.70;;;12.50;99.90;;;;;;4992860;28;20353;-75
2023/05/20 02:06:35;;;;;;;12.50;6.88;;;12.50;99.90;;;;;;4983533;28;20030;-75
2023/05/20 02:09:00;;;;;;;12.25;6.97;;;12.50;99.90;;;;;;4973335;28;20030;-75
2023/05/20 02:11:26;;;;;;;11.55;7.00;;;12.50;99.90;;;;;;4973115;28;20035;-76
2023/05/20 02:13:51;;;;;;;14.07;7.30;;;12.50;99.90;;;;;;4973377;28;20014;-75
2023/05/20 02:16:17;;;;;;;13.15;7.03;;;12.50;99.90;;;;;;4971857;28;20136;-75
2023/05/20 02:18:43;;;;;;;11.65;6.68;;;12.50;99.90;;;;;;4971913;28;20022;-75
2023/05/20 02:21:09;;;;;;;12.88;7.00;;;12.50;99.90;;;;;;4973327;28;20023;-74
2023/05/20 02:23:34;;;;;;;12.55;6.80;;;12.50;99.90;;;;;;4973021;28;20062;-75
2023/05/20 02:26:00;;;;;;;13.85;7.05;;;12.50;99.90;;;;;;4973257;28;20026;-76
2023/05/20 02:28:26;;;;;;;12.85;6.85;;;12.50;99.90;;;;;;4973286;28;20026;-76
2023/05/20 02:30:52;;;;;;;12.23;6.63;;;12.40;99.90;;;;;;4974216;28;20540;-76
2023/05/20 02:33:18;;;;;;;10.13;7.32;;;12.40;99.90;;;;;;4972865;28;20031;-77
2023/05/20 02:35:46;;;;;;;13.43;7.07;;;12.40;99.90;;;;;;4974257;28;20146;-76
2023/05/20 02:38:12;;;;;;;10.82;6.75;;;12.40;99.90;;;;;;4974295;28;20030;-76
2023/05/20 02:40:38;;;;;;;11.43;7.20;;;12.40;99.90;;;;;;4972470;28;20026;-76
2023/05/20 02:43:09;;;;;;;12.55;6.93;;;12.30;99.90;;;;;;4972159;28;20389;-75
2023/05/20 02:45:41;;;;;;;8.98;6.70;;;12.30;99.90;;;;;;4973238;28;20053;-75
2023/05/20 02:48:10;;;;;;;9.68;6.03;;;12.30;99.90;;;;;;4988222;28;20026;-76
2023/05/20 02:50:38;;;;;;;10.70;5.85;;;12.20;99.90;;;;;;4973286;28;20023;-76
2023/05/20 02:53:04;;;;;;;9.73;5.72;;;12.20;99.90;;;;;;4988234;28;20027;-76
2023/05/20 02:55:32;;;;;;;12.52;5.95;;;12.20;99.90;;;;;;4973363;28;20213;-76
2023/05/20 02:58:04;;;;;;;8.27;5.68;;;12.10;99.90;;;;;;4972063;28;20038;-76
2023/05/20 03:00:30;;;;;;;9.43;5.45;;;12.00;99.90;;;;;;4973492;28;20165;-76
2023/05/20 03:03:02;;;;;;;8.73;5.93;;;12.00;99.90;;;;;;4973395;28;20101;-77
2023/05/20 03:05:27;;;;;;;6.82;4.60;;;12.00;99.90;;;;;;4972024;28;20031;-76
2023/05/20 03:08:09;;;;;;;9.52;5.65;;;12.00;99.90;;;;;;4973183;28;20023;-76
2023/05/20 03:10:41;;;;;;;8.00;5.00;;;12.00;99.90;;;;;;4973223;28;20489;-76
2023/05/20 03:13:14;;;;;;;9.88;5.78;;;12.00;99.90;;;;;;4988167;28;20026;-76
2023/05/20 03:15:48;;;;;;;7.47;5.15;;;11.90;99.90;;;;;;4972045;28;20039;-76
2023/05/20 03:18:15;;;;;;;9.00;5.68;;;11.90;99.90;;;;;;4988221;28;20393;-76
2023/05/20 03:20:44;;;;;;;10.40;6.13;;;11.90;99.90;;;;;;4972191;28;20030;-75
2023/05/20 03:23:20;;;;;;;8.75;5.22;;;11.90;99.90;;;;;;4974393;28;20030;-76
2023/05/20 03:25:47;;;;;;;9.77;5.53;;;11.90;99.90;;;;;;4976936;28;20101;-76
2023/05/20 03:28:12;;;;;;;8.82;4.80;;;12.00;99.90;;;;;;4975573;28;20027;-76
2023/05/20 03:30:41;;;;;;;9.15;5.05;;;12.00;99.90;;;;;;4991703;28;20026;-75
2023/05/20 03:33:09;;;;;;;10.40;4.97;;;12.00;99.90;;;;;;4991481;28;20061;-76
2023/05/20 03:35:38;;;;;;;8.65;4.97;;;12.00;99.90;;;;;;4974880;28;20015;-76
2023/05/20 03:38:06;;;;;;;11.02;5.70;;;12.00;99.90;;;;;;4976673;28;20131;-76
2023/05/20 03:40:32;;;;;;;9.70;4.88;;;12.00;99.90;;;;;;4976789;28;20038;-76
2023/05/20 03:43:00;;;;;;;9.43;5.68;;;12.10;99.90;;;;;;4976004;28;20027;-76
2023/05/20 03:45:41;;;;;;;11.13;5.57;;;12.10;99.90;;;;;;4975693;28;20034;-76
2023/05/20 03:48:10;;;;;;;11.88;5.20;;;12.10;99.90;;;;;;4975877;28;20022;-78
2023/05/20 03:50:38;;;;;;;10.90;5.70;;;12.10;99.90;;;;;;4990874;28;20029;-76
2023/05/20 03:53:07;;;;;;;10.43;5.80;;;12.10;99.90;;;;;;4976654;28;20027;-76
2023/05/20 03:55:33;;;;;;;9.88;5.55;;;12.10;99.90;;;;;;4976307;28;20023;-76
2023/05/20 03:58:00;;;;;;;9.88;5.40;;;12.10;99.90;;;;;;4976387;28;20031;-76
2023/05/20 04:00:26;;;;;;;10.68;5.97;;;12.20;99.90;;;;;;4976628;28;20576;-76
2023/05/20 04:02:55;;;;;;;12.90;6.95;;;12.20;99.90;;;;;;4974743;28;20034;-76
2023/05/20 04:05:22;;;;;;;10.07;6.25;;;12.20;99.90;;;;;;4975944;28;20026;-75
2023/05/20 04:07:48;;;;;;;9.15;6.05;;;12.20;99.90;;;;;;4974760;28;20027;-75
2023/05/20 04:10:18;;;;;;;8.93;6.43;;;12.20;99.90;;;;;;4976184;28;20547;-76
2023/05/20 04:12:43;;;;;;;12.50;6.88;;;12.20;99.90;;;;;;4976186;28;20066;-75
2023/05/20 04:15:18;;;;;;;13.25;7.05;;;12.20;99.90;;;;;;4971633;28;20034;-76
2023/05/20 04:17:51;;;;;;;12.02;6.90;;;12.20;99.90;;;;;;4969294;28;20034;-76
2023/05/20 04:20:23;;;;;;;13.35;7.18;;;12.10;99.90;;;;;;4971485;28;20027;-76
2023/05/20 04:22:54;;;;;;;11.60;6.88;;;12.10;99.90;;;;;;4972918;28;20039;-76
2023/05/20 04:25:21;;;;;;;9.27;6.88;;;12.00;99.90;;;;;;4969263;28;20030;-76
2023/05/20 04:27:53;;;;;;;10.95;6.57;;;12.00;99.90;;;;;;4970533;28;20035;-76
2023/05/20 04:30:27;;;;;;;9.70;5.95;;;11.90;99.90;;;;;;4972666;28;20126;-76
2023/05/20 04:32:56;;;;;;;10.52;6.47;;;11.90;99.90;;;;;;4980750;28;20161;-76
2023/05/20 04:35:24;;;;;;;10.55;5.95;;;11.90;99.90;;;;;;4969784;28;20037;-76
2023/05/20 04:37:54;;;;;;;10.07;6.43;;;11.90;99.90;;;;;;4966961;28;20035;-75
2023/05/20 04:40:20;;;;;;;12.02;6.38;;;11.90;99.90;;;;;;4985087;28;20027;-76
2023/05/20 04:42:45;;;;;;;11.27;6.22;;;11.90;99.90;;;;;;4967675;28;20035;-76
2023/05/20 04:45:14;;;;;;;9.27;6.25;;;11.90;99.90;;;;;;4962636;28;20042;-76
2023/05/20 04:47:44;;;;;;;12.50;5.90;;;11.90;99.90;;;;;;4970055;28;20061;-76
2023/05/20 04:50:13;;;;;;;10.00;5.72;;;11.90;99.90;;;;;;4966653;28;20065;-76
2023/05/20 04:52:45;;;;;;;13.85;6.10;;;11.90;99.90;;;;;;4968422;28;20188;-75
2023/05/20 04:55:18;;;;;;;12.77;5.90;;;11.80;99.90;;;;;;4968390;28;20024;-76
2023/05/20 04:57:56;;;;;;;9.05;5.68;;;11.80;99.90;;;;;;4968097;28;20450;-75
2023/05/20 05:00:24;;;;;;;10.07;6.10;;;11.80;99.90;;;;;;4967839;28;20126;-75
2023/05/20 05:02:53;;;;;;;9.00;6.00;;;11.80;99.90;;;;;;4979703;28;20031;-76
2023/05/20 05:05:18;;;;;;;9.45;5.70;;;11.80;99.90;;;;;;4968548;28;20129;-75
2023/05/20 05:07:44;;;;;;;8.88;5.70;;;11.80;99.90;;;;;;4968692;28;20113;-76
2023/05/20 05:10:15;;;;;;;9.07;5.95;;;11.80;99.90;;;;;;4969652;28;20101;-75
2023/05/20 05:12:41;;;;;;;8.40;6.20;;;11.80;99.90;;;;;;4969431;28;20268;-76
2023/05/20 05:15:10;;;;;;;10.77;5.70;;;11.80;99.90;;;;;;4965626;28;20414;-76
2023/05/20 05:17:35;;;;;;;15.60;6.43;;;11.80;99.90;;;;;;4967916;28;20027;-76
2023/05/20 05:20:10;;;;;;;7.95;5.38;;;11.90;99.90;;;;;;4986751;28;20057;-76
2023/05/20 05:22:38;;;;;;;8.85;5.93;;;11.90;99.90;;;;;;4967573;28;20137;-76
2023/05/20 05:25:07;;;;;;;7.95;5.50;;;11.90;99.90;;;;;;4969314;28;20019;-75
2023/05/20 05:27:39;;;;;;;10.85;5.30;;;12.00;99.90;;;;;;4970853;28;20027;-77
2023/05/20 05:30:06;;;;;;;7.63;5.72;;;12.00;99.90;;;;;;4970676;28;20023;-76
2023/05/20 05:32:32;;;;;;;9.38;5.78;;;12.00;99.90;;;;;;4986642;28;20144;-76
2023/05/20 05:34:57;;;;;;;9.30;5.78;;;12.00;99.90;;;;;;4972394;28;20027;-76
2023/05/20 05:37:26;;;;;;;8.68;6.05;;;12.00;99.90;;;;;;4972829;28;20031;-76
2023/05/20 05:39:52;;;;;;;9.73;5.70;;;12.00;99.90;;;;;;4967178;28;20398;-76
2023/05/20 05:42:17;;;;;;;10.95;5.85;;;12.00;99.90;;;;;;4967158;28;20031;-76
2023/05/20 05:44:43;;;;;;;9.20;5.68;;;12.00;99.90;;;;;;4969458;28;20074;-76
2023/05/20 05:47:09;;;;;;;11.98;6.60;;;12.10;99.90;;;;;;4967391;28;20534;-76
2023/05/20 05:49:38;;;;;;;6.80;5.13;;;12.10;99.90;;;;;;4968542;28;20093;-77
2023/05/20 05:52:09;;;;;;;9.05;5.55;;;12.20;99.90;;;;;;4970133;28;20035;-76
2023/05/20 05:54:38;;;;;;;7.70;4.95;;;12.20;99.90;;;;;;4968204;28;20214;-76
2023/05/20 05:57:04;;;;;;;7.90;5.57;;;12.20;99.90;;;;;;4973407;28;20109;-76
2023/05/20 05:59:30;;;;;;;9.80;5.78;;;12.20;99.90;;;;;;4966563;28;20578;-75
2023/05/20 06:01:55;;;;;;;12.13;6.20;;;12.20;99.90;;;;;;4988466;28;20073;-75
2023/05/20 06:04:21;;;;;;;7.45;5.10;;;12.20;99.90;;;;;;4969448;28;20051;-76
2023/05/20 06:06:48;;;;;;;8.63;5.47;;;12.30;99.90;;;;;;4972523;28;20026;-75
2023/05/20 06:09:20;;;;;;;10.20;5.70;;;12.30;99.90;;;;;;4973100;28;20082;-76
2023/05/20 06:11:58;;;;;;;9.63;5.50;;;12.30;99.90;;;;;;4975403;28;20124;-75
2023/05/20 06:14:26;;;;;;;8.05;5.30;;;12.40;99.90;;;;;;4965643;28;20065;-75
2023/05/20 06:16:55;;;;;;;10.65;5.32;;;12.40;99.90;;;;;;4963744;28;20031;-76
2023/05/20 06:19:20;;;;;;;10.30;5.38;;;12.50;99.90;;;;;;4967283;28;20153;-76
2023/05/20 06:21:46;;;;;;;6.60;5.50;;;12.50;99.90;;;;;;4965865;28;20110;-75
2023/05/20 06:24:11;;;;;;;8.10;5.10;;;12.60;99.90;;;;;;4969405;28;20031;-76
2023/05/20 06:26:37;;;;;;;11.40;5.03;;;12.70;99.90;;;;;;4966678;28;20027;-76
2023/05/20 06:29:03;;;;;;;6.88;4.90;;;12.70;99.90;;;;;;4967289;28;20019;-75
2023/05/20 06:31:29;;;;;;;7.43;5.72;;;12.80;99.90;;;;;;4966924;28;20034;-75
2023/05/20 06:33:54;;;;;;;14.52;5.15;;;12.90;99.90;;;;;;4968184;28;20034;-76
2023/05/20 06:36:20;;;;;;;9.57;5.32;;;12.90;99.90;;;;;;4967076;28;20508;-75
2023/05/20 06:38:46;;;;;;;6.43;5.03;;;13.00;99.90;;;;;;4966961;28;20035;-76
2023/05/20 06:41:12;;;;;;;7.80;4.50;;;13.00;99.90;;;;;;4968666;28;20031;-76
2023/05/20 06:43:39;;;;;;;7.82;5.50;;;13.00;99.90;;;;;;4966049;28;20031;-75
2023/05/20 06:46:05;;;;;;;7.63;4.90;;;13.00;99.90;;;;;;4968179;28;20030;-76
2023/05/20 06:48:31;;;;;;;7.47;5.15;;;13.10;99.90;;;;;;4967354;28;20046;-76
2023/05/20 06:50:57;;;;;;;9.73;5.38;;;13.10;99.90;;;;;;4985599;28;20081;-75
2023/05/20 06:53:22;;;;;;;10.65;4.95;;;13.30;99.90;;;;;;4965897;28;20039;-76
2023/05/20 06:55:48;;;;;;;8.77;5.90;;;13.30;99.90;;;;;;4969911;28;20379;-75
2023/05/20 06:58:14;;;;;;;12.63;5.97;;;13.40;99.90;;;;;;4969920;28;20034;-76
2023/05/20 07:00:40;;;;;;;9.43;5.18;;;13.40;99.90;;;;;;4976106;28;20034;-76
2023/05/20 07:03:06;;;;;;;6.65;5.18;;;13.50;99.90;;;;;;4977460;28;20027;-75
2023/05/20 07:05:31;;;;;;;7.95;5.05;;;13.60;99.90;;;;;;4974701;28;20121;-76
2023/05/20 07:07:57;;;;;;;7.97;5.85;;;13.60;99.90;;;;;;4973641;28;20023;-77
2023/05/20 07:10:22;;;;;;;10.93;5.80;;;13.60;99.90;;;;;;4974562;28;20030;-76
2023/05/20 07:12:48;;;;;;;7.40;5.28;;;13.70;99.90;;;;;;4973763;28;20034;-77
2023/05/20 07:15:14;;;;;;;8.05;5.65;;;13.70;99.90;;;;;;4974320;28;20050;-76
2023/05/20 07:17:39;;;;;;;10.57;5.82;;;13.70;99.90;;;;;;4973645;28;20381;-76
2023/05/20 07:20:06;;;;;;;8.98;5.95;;;13.70;99.90;;;;;;4973940;28;20038;-76
2023/05/20 07:22:32;;;;;;;10.38;5.95;;;13.90;99.90;;;;;;4979438;28;20026;-76
2023/05/20 07:24:59;;;;;;;7.72;5.90;;;14.00;99.90;;;;;;4993876;28;20084;-76
2023/05/20 07:27:25;;;;;;;7.82;5.38;;;14.10;99.90;;;;;;4978250;28;20015;-75
2023/05/20 07:29:51;;;;;;;7.35;5.55;;;14.20;99.90;;;;;;4976415;28;20105;-76
2023/05/20 07:32:17;;;;;;;9.38;5.15;;;14.30;99.90;;;;;;4977168;28;20034;-75
2023/05/20 07:34:42;;;;;;;6.53;5.40;;;14.40;99.90;;;;;;4974612;28;20476;-76
2023/05/20 07:37:08;;;;;;;9.82;5.18;;;14.50;99.90;;;;;;4974427;28;20128;-76
2023/05/20 07:39:34;;;;;;;7.25;5.35;;;14.60;99.90;;;;;;4978983;28;20029;-75
2023/05/20 07:42:00;;;;;;;9.52;5.63;;;14.60;99.90;;;;;;4988463;28;20038;-75
2023/05/20 07:44:26;;;;;;;8.18;5.53;;;14.60;99.90;;;;;;4972499;28;20042;-75
2023/05/20 07:46:51;;;;;;;9.70;5.88;;;14.70;99.90;;;;;;4972430;28;20119;-76
2023/05/20 07:49:17;;;;;;;7.22;5.40;;;14.60;99.90;;;;;;4977978;28;20105;-76
2023/05/20 07:51:43;;;;;;;9.20;6.05;;;14.70;99.90;;;;;;4976511;28;20466;-75
2023/05/20 07:54:09;;;;;;;8.18;5.43;;;14.60;99.90;;;;;;4974778;28;20065;-76
2023/05/20 07:56:34;;;;;;;6.43;4.93;;;14.70;99.90;;;;;;4977684;28;20034;-76
2023/05/20 07:59:02;;;;;;;10.18;5.88;;;14.80;99.90;;;;;;4975099;28;20034;-75
2023/05/20 08:01:28;;;;;;;9.32;6.00;;;14.90;99.90;;;;;;4974845;28;20361;-76
2023/05/20 08:03:53;;;;;;;10.13;6.35;;;15.00;99.90;;;;;;4975037;28;20114;-75
2023/05/20 08:06:19;;;;;;;8.93;5.72;;;15.10;99.90;;;;;;4974605;28;20121;-76
2023/05/20 08:08:46;;;;;;;7.75;5.40;;;15.20;99.90;;;;;;4974114;28;20153;-75
2023/05/20 08:11:12;;;;;;;9.50;5.80;;;15.30;99.90;;;;;;4975005;28;20481;-75
2023/05/20 08:13:38;;;;;;;7.85;5.72;;;15.30;99.90;;;;;;4969522;28;20043;-76
2023/05/20 08:16:04;;;;;;;7.53;5.43;;;15.30;99.90;;;;;;4970442;28;20399;-75
2023/05/20 08:18:31;;;;;;;8.45;5.70;;;15.30;99.90;;;;;;4974903;28;20027;-76
2023/05/20 08:20:57;;;;;;;10.75;6.22;;;15.30;99.90;;;;;;4970822;28;20105;-76
2023/05/20 08:23:24;;;;;;;7.95;5.95;;;15.40;99.90;;;;;;4981000;28;20037;-75
2023/05/20 08:25:50;;;;;;;8.95;5.55;;;15.40;99.90;;;;;;4992054;28;20041;-76
2023/05/20 08:28:15;;;;;;;8.60;6.03;;;15.40;99.90;;;;;;4973861;28;20026;-76
2023/05/20 08:30:41;;;;;;;6.82;5.50;;;15.50;99.90;;;;;;4973379;28;20030;-76
2023/05/20 08:33:07;;;;;;;9.35;6.35;;;15.60;99.90;;;;;;4969387;28;20054;-75
2023/05/20 08:35:32;;;;;;;8.82;6.03;;;15.60;99.90;;;;;;4967742;28;20030;-75
2023/05/20 08:37:58;;;;;;;11.30;6.10;;;15.70;99.90;;;;;;4972971;28;20053;-75
2023/05/20 08:40:25;;;;;;;9.73;6.68;;;15.80;99.90;;;;;;4977763;28;20026;-75
2023/05/20 08:42:51;;;;;;;8.05;5.93;;;15.80;99.90;;;;;;4970179;28;20035;-75
2023/05/20 08:45:25;;;;;;;7.63;5.57;;;15.90;99.90;;;;;;4973649;28;20031;-76
2023/05/20 08:47:51;;;;;;;10.85;6.45;;;15.90;99.90;;;;;;4972155;28;20034;-75
2023/05/20 08:50:18;;;;;;;10.35;6.15;;;15.90;99.90;;;;;;4971842;28;20445;-75
2023/05/20 08:52:45;;;;;;;6.55;4.97;;;16.10;99.90;;;;;;4971856;28;20114;-75
2023/05/20 08:55:21;;;;;;;8.07;5.55;;;16.20;99.90;;;;;;4973239;28;20026;-76
2023/05/20 08:57:50;;;;;;;8.68;5.38;;;16.30;99.90;;;;;;4969715;28;20034;-76
2023/05/20 09:00:16;;;;;;;10.20;5.03;;;16.40;99.90;;;;;;4970982;28;20136;-76
2023/05/20 09:02:44;;;;;;;6.95;5.18;;;16.40;99.90;;;;;;4970602;28;20088;-76
2023/05/20 09:05:09;;;;;;;7.63;5.43;;;16.60;99.90;;;;;;4973756;28;20346;-76
2023/05/20 09:07:35;;;;;;;7.07;5.10;;;16.70;99.90;;;;;;4970758;28;20027;-76
2023/05/20 09:10:02;;;;;;;6.22;4.85;;;16.70;99.90;;;;;;4971560;28;20023;-76
2023/05/20 09:12:28;;;;;;;7.18;5.40;;;16.90;99.90;;;;;;4988198;28;20038;-76
2023/05/20 09:14:54;;;;;;;8.23;5.38;;;16.90;99.90;;;;;;4970456;28;20030;-76
2023/05/20 09:17:22;;;;;;;6.50;5.20;;;16.90;99.90;;;;;;4971055;28;20027;-76
2023/05/20 09:19:52;;;;;;;7.13;5.65;;;17.00;99.90;;;;;;4967228;28;20035;-76
2023/05/20 09:22:22;;;;;;;5.60;4.57;;;17.00;99.90;;;;;;4985344;28;20049;-76
2023/05/20 09:24:49;;;;;;;6.70;4.72;;;17.10;99.90;;;;;;4968879;28;20019;-77
2023/05/20 09:27:15;;;;;;;7.72;5.32;;;17.20;99.90;;;;;;4968389;28;20023;-77
2023/05/20 09:29:42;;;;;;;7.03;4.88;;;17.30;99.90;;;;;;4966415;28;20130;-77
2023/05/20 09:32:12;;;;;;;8.73;5.15;;;17.50;99.90;;;;;;4966499;28;20023;-76
2023/05/20 09:34:40;;;;;;;7.25;5.30;;;17.60;99.90;;;;;;4966226;28;20078;-76
2023/05/20 09:37:09;;;;;;;7.25;4.60;;;17.60;99.90;;;;;;4967894;28;20125;-76
2023/05/20 09:39:55;;;;;;;6.57;4.75;;;17.50;99.90;;;;;;4963191;28;20557;-76
2023/05/20 09:42:25;;;;;;;5.38;4.70;;;17.60;99.90;;;;;;4962576;28;20027;-75
2023/05/20 09:44:53;;;;;;;9.23;5.13;;;17.70;99.90;;;;;;4967560;28;20035;-76
2023/05/20 09:47:19;;;;;;;7.10;5.25;;;17.80;99.90;;;;;;4967259;28;20029;-76
2023/05/20 09:49:51;;;;;;;7.75;5.60;;;17.90;99.90;;;;;;4963233;28;20042;-75
2023/05/20 09:52:17;;;;;;;7.20;5.25;;;17.90;99.90;;;;;;4971297;28;20982;-76
2023/05/20 09:54:44;;;;;;;5.82;4.85;;;17.90;99.90;;;;;;4967629;28;20102;-76
2023/05/20 09:57:11;;;;;;;6.40;4.65;;;17.80;99.90;;;;;;4968924;28;20233;-76
2023/05/20 09:59:37;;;;;;;5.78;4.40;;;17.90;99.90;;;;;;4970274;28;20433;-76
2023/05/20 10:02:05;;;;;;;7.57;5.13;;;17.90;99.90;;;;;;4970526;28;20154;-76
2023/05/20 10:04:33;;;;;;;5.63;4.50;;;17.90;99.90;;;;;;4964675;28;20105;-75
2023/05/20 10:06:59;;;;;;;8.32;4.68;;;18.00;99.90;;;;;;4968061;28;20121;-75
2023/05/20 10:09:43;;;;;;;9.15;5.45;;;18.10;99.90;;;;;;4985392;28;20414;-75
2023/05/20 10:12:17;;;;;;;7.40;4.60;;;18.10;99.90;;;;;;4965598;28;20083;-75
2023/05/20 10:15:11;;;;;;;5.80;4.55;;;18.10;99.90;;;;;;4970242;28;20034;-77
2023/05/20 10:17:40;;;;;;;6.80;5.00;;;18.10;99.90;;;;;;4977113;28;20031;-77
2023/05/20 10:20:10;;;;;;;7.95;5.53;;;18.20;99.90;;;;;;4968758;28;20050;-77
2023/05/20 10:22:37;;;;;;;8.05;5.38;;;18.20;99.90;;;;;;4972832;28;20023;-76
2023/05/20 10:25:08;;;;;;;8.52;5.80;;;18.20;99.90;;;;;;4974735;28;20421;-78
2023/05/20 10:27:47;;;;;;;7.88;5.28;;;18.20;99.90;;;;;;4981205;28;20019;-77
2023/05/20 10:30:20;;;;;;;6.50;5.28;;;18.30;99.90;;;;;;4978488;28;20541;-77
2023/05/20 10:32:55;;;;;;;6.30;4.85;;;18.30;99.90;;;;;;4969892;28;20397;-77
2023/05/20 10:35:25;;;;;;;6.15;5.20;;;18.50;99.90;;;;;;4975501;28;20038;-77
2023/05/20 10:37:53;;;;;;;5.28;4.38;;;18.50;99.90;;;;;;4975006;28;20053;-77
2023/05/20 10:40:20;;;;;;;6.18;5.15;;;18.60;99.90;;;;;;4975681;28;20055;-78
2023/05/20 10:42:46;;;;;;;7.85;5.03;;;18.60;99.90;;;;;;4977352;28;20034;-79
2023/05/20 10:45:25;;;;;;;6.47;4.85;;;18.60;99.90;;;;;;4971063;28;20035;-79
2023/05/20 10:48:00;;;;;;;6.68;4.63;;;18.70;99.90;;;;;;4971277;28;20078;-79
2023/05/20 10:50:33;;;;;;;5.43;4.47;;;18.70;99.90;;;;;;4981079;28;20023;-79
2023/05/20 10:53:06;;;;;;;7.82;4.65;;;18.70;99.90;;;;;;4990102;28;20406;-80
2023/05/20 10:55:39;;;;;;;9.80;5.50;;;18.80;99.90;;;;;;4981200;28;20062;-79
2023/05/20 10:58:09;;;;;;;6.18;4.63;;;18.90;99.90;;;;;;4977616;28;20379;-79
2023/05/20 11:00:38;;;;;;;7.72;5.80;;;19.00;99.90;;;;;;4981644;28;20449;-79
2023/05/20 11:03:06;;;;;;;8.75;5.75;;;19.10;99.90;;;;;;4978378;28;20023;-79
2023/05/20 11:05:33;;;;;;;6.72;4.25;;;19.20;99.90;;;;;;4868305;28;20132;-79
2023/05/20 11:08:03;;;;;;;6.30;5.10;;;19.30;99.90;;;;;;4967170;28;20031;-79
2023/05/20 11:10:29;;;;;;;10.30;4.88;;;19.40;99.90;;;;;;4983112;28;20384;-79
2023/05/20 11:12:56;;;;;;;6.78;5.63;;;19.40;99.90;;;;;;4979153;28;20027;-78
2023/05/20 11:15:25;;;;;;;9.43;6.22;;;19.50;99.90;;;;;;4993960;28;20039;-79
2023/05/20 11:18:06;;;;;;;9.65;4.80;;;19.40;99.90;;;;;;4980703;28;20097;-80
2023/05/20 11:20:34;;;;;;;6.00;5.15;;;19.40;99.90;;;;;;4976123;28;20026;-79
2023/05/20 11:23:01;;;;;;;8.38;5.00;;;19.40;99.90;;;;;;4981071;28;20039;-78
2023/05/20 11:25:35;;;;;;;6.82;4.75;;;19.40;99.90;;;;;;4980415;28;20037;-79
2023/05/20 11:28:01;;;;;;;6.50;4.70;;;19.40;99.90;;;;;;4980421;28;20023;-79
2023/05/20 11:30:30;;;;;;;7.15;4.47;;;19.50;99.90;;;;;;4980807;28;20034;-79
2023/05/20 11:32:59;;;;;;;9.18;5.20;;;19.50;99.90;;;;;;4980798;28;20030;-79
2023/05/20 11:35:28;;;;;;;7.63;4.93;;;19.60;99.90;;;;;;4982413;28;20082;-79
2023/05/20 11:38:05;;;;;;;5.97;4.20;;;19.70;99.90;;;;;;4982033;28;20121;-79
2023/05/20 11:40:32;;;;;;;6.22;4.72;;;19.70;99.70;;;;;;4980546;28;20114;-79
2023/05/20 11:43:00;;;;;;;6.20;4.50;;;19.80;99.60;;;;;;4979491;28;20139;-79
2023/05/20 11:45:28;;;;;;;6.15;4.60;;;19.80;99.40;;;;;;4982011;28;20023;-79
2023/05/20 11:48:01;;;;;;;10.65;6.90;;;19.80;99.40;;;;;;4983795;28;20458;-81
2023/05/20 11:50:39;;;;;;;7.10;4.68;;;19.90;99.10;;;;;;4981427;28;20019;-82
2023/05/20 11:53:06;;;;;;;6.25;4.75;;;19.90;99.30;;;;;;4981120;28;20050;-80
2023/05/20 11:55:32;;;;;;;5.88;4.32;;;19.90;98.70;;;;;;4997447;28;20153;-80
2023/05/20 11:58:00;;;;;;;6.28;4.30;;;20.00;98.80;;;;;;4984318;28;20026;-80
2023/05/20 12:00:28;;;;;;;7.18;4.65;;;20.10;98.60;;;;;;4978426;28;20023;-80
2023/05/20 12:02:54;;;;;;;6.32;4.63;;;20.10;98.60;;;;;;4996668;28;20025;-80
2023/05/20 12:05:23;;;;;;;7.78;5.15;;;20.10;98.30;;;;;;4982215;28;20098;-80
2023/05/20 12:07:55;;;;;;;7.22;4.57;;;20.10;98.60;;;;;;4981480;28;20027;-80
2023/05/20 12:10:23;;;;;;;7.25;4.45;;;20.10;98.90;;;;;;4997243;28;22956;-80
2023/05/20 12:12:52;;;;;;;5.57;4.35;;;20.20;98.90;;;;;;4980585;28;20038;-80
2023/05/20 12:15:17;;;;;;;4.75;4.25;;;20.30;98.90;;;;;;4976416;28;20113;-80
2023/05/20 12:17:52;;;;;;;5.18;4.10;;;20.40;98.10;;;;;;4980700;28;20023;-80
2023/05/20 12:20:24;;;;;;;6.07;4.53;;;20.40;98.20;;;;;;4976843;28;20035;-80
2023/05/20 12:22:53;;;;;;;5.25;4.13;;;20.40;97.90;;;;;;4976876;28;20031;-80
2023/05/20 12:25:20;;;;;;;7.43;4.68;;;20.40;98.10;;;;;;4977067;28;20027;-80
2023/05/20 12:27:47;;;;;;;7.00;4.40;;;20.40;98.20;;;;;;4981888;28;20033;-80
2023/05/20 12:30:20;;;;;;;6.93;4.82;;;20.40;98.20;;;;;;4977065;28;20103;-80
2023/05/20 12:32:50;;;;;;;6.97;4.57;;;20.50;98.10;;;;;;4990975;28;20106;-80
2023/05/20 12:35:18;;;;;;;5.28;4.07;;;20.50;98.20;;;;;;4980251;28;20437;-80
2023/05/20 12:37:44;;;;;;;5.15;4.13;;;20.60;98.00;;;;;;4976883;28;20034;-80
2023/05/20 12:40:11;;;;;;;4.68;4.13;;;20.60;97.50;;;;;;4974304;28;20430;-79
2023/05/20 12:42:38;;;;;;;6.53;4.55;;;20.80;97.50;;;;;;4975925;28;20485;-80
2023/05/20 12:45:05;;;;;;;5.20;4.30;;;20.80;97.10;;;;;;4977525;28;20025;-80
2023/05/20 12:47:34;;;;;;;6.60;4.10;;;20.90;97.00;;;;;;4978142;28;20390;-80